Kingston, Rhode Island
Current Conditions -  °F | °C
As of 2:05 AM on Wednesday 22 Oct 2014 (Local Time) from KUUU Reporting Station
Haze Haze  
Wind Chill: 57°   Ceiling: 400
Heat Index: 57°   Visibility: 4mi
Dew Point: 54°   Wind: 9mph
Humidity: 89%   Direction: 20°NNE
Pressure: 29.94"   Gusts: NA
Location:  41.48°N, 71.52°W
Report Text: KUUU 220605Z AUTO 02008KT 4SM BR OVC004 14/12 A2994 RMK AO2 T01390122
Loading
Personal Weather Stations






























Interactive Weather Map
Tropical Storm Tracking
New forecast layout! Learn more

10-Day Weather Forecast

Advertisements
Track Severe Weather on mobile